Time;durP1;ratioP1;P1;durP2;ratioP2;P2;SDS_P1;SDS_P2;PMS_P1;PMS_P2;Temp;Humidity;BMP_temperature;BMP_pressure;BME280_temperature;BME280_humidity;BME280_pressure;Samples;Min_cycle;Max_cycle;Signal;HPM_P1;HPM_P2
2022/07/21 00:00:07;;;;;;;5.50;5.00;;;;;;;23.73;53.71;98676.81;4134763;28;20022;-71
2022/07/21 00:02:08;;;;;;;5.57;4.72;;;;;;;23.63;53.92;98663.88;4133361;28;20113;-71
2022/07/21 00:04:08;;;;;;;7.03;5.25;;;;;;;23.57;54.47;98676.22;4135544;28;20469;-71
2022/07/21 00:06:08;;;;;;;9.73;5.72;;;;;;;23.51;54.32;98678.88;4137458;28;20474;-71
2022/07/21 00:08:09;;;;;;;5.45;4.85;;;;;;;23.54;54.72;98673.06;4139046;28;20034;-71
2022/07/21 00:10:12;;;;;;;5.40;4.90;;;;;;;23.52;54.59;98675.56;4137164;28;20204;-71
2022/07/21 00:12:12;;;;;;;6.28;4.82;;;;;;;23.39;55.20;98672.03;4140422;28;20069;-71
2022/07/21 00:14:13;;;;;;;6.28;4.90;;;;;;;23.39;55.70;98677.66;4138713;28;20116;-71
2022/07/21 00:16:13;;;;;;;5.22;4.72;;;;;;;23.37;55.33;98685.81;4138116;28;20033;-72
2022/07/21 00:18:14;;;;;;;6.20;4.88;;;;;;;23.32;55.87;98666.63;4139381;28;20663;-71
2022/07/21 00:20:16;;;;;;;5.43;4.93;;;;;;;23.23;56.22;98660.94;4135599;28;20029;-71
2022/07/21 00:22:17;;;;;;;7.22;5.13;;;;;;;23.30;56.17;98654.25;4138757;28;20034;-71
2022/07/21 00:24:17;;;;;;;6.03;5.05;;;;;;;23.26;56.10;98645.91;4137499;28;20096;-71
2022/07/21 00:26:18;;;;;;;5.28;4.78;;;;;;;23.22;56.47;98639.59;4138298;28;20439;-71
2022/07/21 00:28:18;;;;;;;6.22;4.97;;;;;;;23.22;56.56;98628.31;4138299;28;20099;-71
2022/07/21 00:30:19;;;;;;;6.38;4.35;;;;;;;23.18;56.84;98642.56;4139081;28;20413;-72
2022/07/21 00:32:19;;;;;;;5.30;4.53;;;;;;;23.15;56.62;98639.84;4137663;28;20030;-71
2022/07/21 00:34:19;;;;;;;7.50;5.07;;;;;;;23.17;57.09;98648.66;4136888;28;20041;-71
2022/07/21 00:36:21;;;;;;;5.78;4.80;;;;;;;22.98;57.08;98637.22;4138211;28;20184;-70
2022/07/21 00:38:21;;;;;;;6.87;5.17;;;;;;;22.94;57.64;98641.44;4137146;28;20058;-71
2022/07/21 00:40:22;;;;;;;5.68;4.95;;;;;;;22.89;57.63;98642.00;4137929;28;20057;-71
2022/07/21 00:42:31;;;;;;;6.80;4.88;;;;;;;22.90;58.12;98630.25;4139193;28;20046;-71
2022/07/21 00:44:32;;;;;;;6.57;5.15;;;;;;;22.85;58.02;98615.97;4139090;28;20531;-71
2022/07/21 00:46:32;;;;;;;5.45;4.57;;;;;;;22.83;58.16;98618.41;4138082;28;20140;-71
2022/07/21 00:48:33;;;;;;;8.55;4.70;;;;;;;22.83;58.61;98624.84;4137052;28;20497;-71
2022/07/21 00:50:33;;;;;;;6.50;5.15;;;;;;;22.77;59.37;98654.13;4137282;28;20153;-71
2022/07/21 00:52:34;;;;;;;8.50;5.10;;;;;;;22.70;59.63;98669.25;4138536;28;20117;-70
2022/07/21 00:54:34;;;;;;;6.78;4.70;;;;;;;22.67;59.89;98670.94;4137455;28;20050;-71
2022/07/21 00:56:35;;;;;;;8.65;4.57;;;;;;;22.59;60.11;98672.44;4137908;28;20046;-71
2022/07/21 00:58:36;;;;;;;6.43;4.75;;;;;;;22.58;60.14;98670.03;4138068;28;20064;-70
2022/07/21 01:00:37;;;;;;;7.07;4.40;;;;;;;22.59;59.76;98677.25;4135302;28;20069;-71
2022/07/21 01:02:38;;;;;;;5.85;4.70;;;;;;;22.62;60.06;98682.00;4139016;28;20073;-71
2022/07/21 01:04:39;;;;;;;6.72;4.90;;;;;;;22.67;59.96;98684.22;4138433;28;20034;-71
2022/07/21 01:06:39;;;;;;;6.35;5.15;;;;;;;22.67;59.90;98675.78;4138100;28;20050;-70
2022/07/21 01:08:40;;;;;;;7.57;5.05;;;;;;;22.58;59.96;98672.88;4137827;28;20084;-71
2022/07/21 01:10:40;;;;;;;5.57;4.90;;;;;;;22.52;60.37;98675.50;4135011;28;20359;-71
2022/07/21 01:12:41;;;;;;;6.93;4.70;;;;;;;22.51;60.39;98690.03;4138657;28;20046;-70
2022/07/21 01:14:41;;;;;;;7.20;5.43;;;;;;;22.53;60.37;98687.56;4138467;28;20317;-71
2022/07/21 01:16:43;;;;;;;6.25;4.93;;;;;;;22.52;60.40;98689.59;4136886;28;20046;-70
2022/07/21 01:18:44;;;;;;;8.25;5.18;;;;;;;22.45;61.06;98689.81;4136875;28;20502;-70
2022/07/21 01:20:51;;;;;;;6.70;5.90;;;;;;;22.50;61.13;98686.41;4134553;28;20441;-71
2022/07/21 01:22:55;;;;;;;5.82;5.05;;;;;;;22.39;61.78;98719.81;4136896;28;20057;-71
2022/07/21 01:24:55;;;;;;;6.28;4.97;;;;;;;22.38;61.93;98709.78;4138387;28;20506;-71
2022/07/21 01:26:56;;;;;;;6.10;4.88;;;;;;;22.29;63.14;98704.84;4137668;28;20046;-71
2022/07/21 01:28:57;;;;;;;5.72;4.50;;;;;;;22.20;64.70;98716.00;4136463;28;20042;-71
2022/07/21 01:30:57;;;;;;;7.32;4.95;;;;;;;22.01;65.36;98712.13;4137336;28;20145;-71
2022/07/21 01:32:58;;;;;;;5.80;4.82;;;;;;;21.99;66.40;98722.25;4138807;28;20045;-71
2022/07/21 01:34:58;;;;;;;6.72;5.18;;;;;;;21.90;67.00;98722.13;4137064;28;20056;-71
2022/07/21 01:36:58;;;;;;;6.85;5.20;;;;;;;21.81;67.48;98728.44;4138909;28;20041;-70
2022/07/21 01:41:30;;;;;;;6.28;4.82;;;;;;;21.77;69.02;98725.72;4137669;28;20084;-71
2022/07/21 01:43:30;;;;;;;5.22;4.72;;;;;;;21.74;68.84;98714.56;4137741;28;20037;-70
2022/07/21 01:45:31;;;;;;;7.95;5.30;;;;;;;21.72;69.64;98714.22;4137982;28;20470;-71
2022/07/21 01:47:32;;;;;;;6.80;5.15;;;;;;;21.62;70.29;98715.34;4137469;28;20474;-70
2022/07/21 01:49:32;;;;;;;8.27;5.10;;;;;;;21.57;70.50;98714.63;4135671;28;20053;-71
2022/07/21 01:51:33;;;;;;;9.45;5.18;;;;;;;21.60;68.54;98724.22;4136820;28;20487;-71
2022/07/21 01:53:33;;;;;;;7.70;5.75;;;;;;;21.54;70.52;98726.81;4134226;28;20518;-71
2022/07/21 01:55:35;;;;;;;13.27;5.65;;;;;;;21.53;71.23;98719.59;4136648;28;20046;-71
2022/07/21 01:57:35;;;;;;;8.10;5.25;;;;;;;21.48;69.99;98708.09;4137841;28;20041;-70
2022/07/21 01:59:35;;;;;;;7.32;5.28;;;;;;;21.45;71.02;98703.34;4135772;28;20069;-70
2022/07/21 02:01:36;;;;;;;7.30;5.13;;;;;;;21.45;70.54;98695.69;4137817;28;20237;-70
2022/07/21 02:03:36;;;;;;;15.40;5.25;;;;;;;21.47;70.40;98689.63;4128863;28;20069;-70
2022/07/21 02:05:36;;;;;;;6.75;5.13;;;;;;;21.47;69.94;98698.06;4135044;28;20049;-71
2022/07/21 02:07:37;;;;;;;7.18;5.05;;;;;;;21.43;71.21;98708.63;4136754;28;20049;-71
2022/07/21 02:09:37;;;;;;;5.88;4.60;;;;;;;21.40;68.98;98701.88;4136385;28;20042;-70
2022/07/21 02:11:38;;;;;;;9.48;5.38;;;;;;;21.51;68.63;98698.75;4137413;28;20049;-70
2022/07/21 02:13:39;;;;;;;8.63;5.00;;;;;;;21.49;71.27;98707.63;4137298;28;20073;-71
2022/07/21 02:15:39;;;;;;;5.85;5.20;;;;;;;21.38;72.06;98701.53;4137349;28;20173;-70
2022/07/21 02:17:39;;;;;;;7.45;5.20;;;;;;;21.40;72.13;98713.13;4137902;28;20137;-71
2022/07/21 02:19:40;;;;;;;6.63;5.22;;;;;;;21.31;72.53;98730.66;4135597;28;20080;-70
2022/07/21 02:21:40;;;;;;;9.20;5.50;;;;;;;21.28;72.28;98734.38;4138056;28;20545;-70
2022/07/21 02:23:40;;;;;;;7.53;5.03;;;;;;;21.38;69.31;98726.06;4135860;28;20042;-69
2022/07/21 02:25:41;;;;;;;8.07;5.70;;;;;;;21.45;69.76;98725.88;4138215;28;20816;-70
2022/07/21 02:27:45;;;;;;;7.68;5.50;;;;;;;21.50;70.30;98723.28;4135476;28;20056;-71
2022/07/21 02:29:45;;;;;;;7.00;5.25;;;;;;;21.56;70.86;98723.53;4136123;28;20050;-71
2022/07/21 02:31:45;;;;;;;7.10;5.60;;;;;;;21.51;72.37;98735.34;4137260;28;20053;-71
2022/07/21 02:33:46;;;;;;;8.10;5.18;;;;;;;21.44;72.27;98735.56;4136908;28;20749;-69
2022/07/21 02:35:46;;;;;;;9.60;5.72;;;;;;;21.38;73.33;98729.69;4137046;28;20046;-71
2022/07/21 02:37:46;;;;;;;8.82;5.63;;;;;;;21.30;74.29;98722.66;4137394;28;20146;-69
2022/07/21 02:39:47;;;;;;;7.38;5.72;;;;;;;21.17;75.88;98742.25;4135079;28;20592;-69
2022/07/21 02:41:47;;;;;;;10.55;6.25;;;;;;;21.17;73.17;98744.28;4136807;28;20045;-70
2022/07/21 02:43:47;;;;;;;10.40;5.55;;;;;;;21.21;74.39;98740.16;4136544;28;20395;-70
2022/07/21 02:45:48;;;;;;;11.05;6.47;;;;;;;21.20;75.91;98737.78;4137832;28;20551;-70
2022/07/21 02:47:49;;;;;;;8.68;6.05;;;;;;;21.12;77.29;98725.16;4134931;28;20157;-70
2022/07/21 02:49:49;;;;;;;8.30;6.35;;;;;;;21.07;76.82;98722.88;4135877;28;20057;-70
2022/07/21 02:51:50;;;;;;;10.27;6.50;;;;;;;21.00;78.45;98721.81;4136070;28;20045;-70
2022/07/21 02:53:50;;;;;;;11.40;6.90;;;;;;;20.91;79.71;98718.84;4136212;28;20078;-70
2022/07/21 02:55:54;;;;;;;9.43;6.65;;;;;;;20.71;82.77;98737.88;4136774;28;20053;-70
2022/07/21 02:58:12;;;;;;;14.25;6.53;;;;;;;20.70;82.87;98730.66;4135890;28;20042;-70
2022/07/21 03:00:13;;;;;;;9.20;6.03;;;;;;;20.58;83.77;98726.53;4135297;28;20510;-70
2022/07/21 03:02:14;;;;;;;8.60;5.90;;;;;;;20.54;83.20;98733.47;4136516;28;20259;-71
2022/07/21 03:04:14;;;;;;;11.02;6.43;;;;;;;20.46;84.90;98744.91;4135045;28;20026;-70
2022/07/21 03:06:15;;;;;;;9.00;6.80;;;;;;;20.46;85.06;98752.53;4135929;28;20076;-70
2022/07/21 03:08:16;;;;;;;13.18;6.95;;;;;;;20.43;86.61;98753.34;4137400;28;20026;-70
2022/07/21 03:10:17;;;;;;;14.15;6.72;;;;;;;20.40;85.97;98757.06;4135879;28;20478;-70
2022/07/21 03:12:17;;;;;;;13.02;6.68;;;;;;;20.44;84.41;98778.28;4136231;28;20050;-70
2022/07/21 03:14:17;;;;;;;13.90;6.13;;;;;;;20.54;81.21;98790.47;4135119;28;20108;-70
2022/07/21 03:16:18;;;;;;;18.35;7.50;;;;;;;20.70;78.36;98784.09;4135815;28;20092;-70
2022/07/21 03:18:18;;;;;;;13.77;6.65;;;;;;;20.83;79.87;98781.34;4135665;28;20025;-70
2022/07/21 03:20:18;;;;;;;15.02;6.95;;;;;;;20.79;81.24;98786.28;4135844;28;20034;-70
2022/07/21 03:22:19;;;;;;;16.13;6.93;;;;;;;20.76;80.63;98785.13;4136282;28;20053;-70
2022/07/21 03:24:19;;;;;;;15.63;6.35;;;;;;;20.82;78.59;98788.19;4135911;28;20586;-69
2022/07/21 03:26:20;;;;;;;15.25;6.68;;;;;;;20.84;80.58;98766.84;4136976;28;20042;-70
2022/07/21 03:28:20;;;;;;;12.18;6.10;;;;;;;20.78;81.60;98757.38;4135315;28;20041;-70
2022/07/21 03:30:21;;;;;;;8.27;5.78;;;;;;;20.71;80.48;98746.31;4134165;28;20398;-70
2022/07/21 03:32:22;;;;;;;7.82;6.72;;;;;;;20.65;81.13;98745.25;4136207;28;20070;-69
2022/07/21 03:34:22;;;;;;;9.00;5.80;;;;;;;20.68;80.58;98739.50;4136175;28;20041;-70
2022/07/21 03:36:23;;;;;;;7.22;6.10;;;;;;;20.68;81.98;98724.66;4137377;28;20077;-70
2022/07/21 03:38:23;;;;;;;9.15;5.90;;;;;;;20.70;82.57;98713.78;4135678;28;20095;-70
2022/07/21 03:40:25;;;;;;;8.98;6.47;;;;;;;20.57;84.70;98722.13;4134973;28;20069;-70
2022/07/21 03:42:26;;;;;;;;;;;;;;;20.40;86.44;98768.28;4135988;28;20406;-69
2022/07/21 03:44:26;;;;;;;11.80;7.20;;;;;;;20.40;85.59;98783.13;4134810;28;19928;-70
2022/07/21 03:46:26;;;;;;;10.02;6.65;;;;;;;20.38;85.72;98788.41;4136704;28;20052;-68
2022/07/21 03:48:27;;;;;;;8.32;6.60;;;;;;;20.38;85.89;98784.81;4134565;28;20288;-70
2022/07/21 03:50:29;;;;;;;8.65;6.95;;;;;;;20.39;86.22;98766.72;4135773;28;20049;-70
2022/07/21 03:52:29;;;;;;;10.32;7.13;;;;;;;20.28;88.38;98780.22;4134040;28;20133;-70
2022/07/21 03:54:29;;;;;;;9.75;7.25;;;;;;;20.24;88.44;98768.28;4132176;28;20140;-69
2022/07/21 03:56:30;;;;;;;10.68;7.38;;;;;;;20.01;90.43;98761.53;4132977;28;20034;-69
2022/07/21 03:58:30;;;;;;;13.05;7.25;;;;;;;19.97;90.43;98766.47;4132576;28;20474;-69
2022/07/21 04:00:31;;;;;;;19.33;8.40;;;;;;;19.88;90.03;98769.84;4134265;28;20042;-69
2022/07/21 04:02:32;;;;;;;23.50;8.18;;;;;;;19.89;90.59;98779.06;4130326;28;20485;-69
2022/07/21 04:04:32;;;;;;;13.65;8.20;;;;;;;19.76;92.21;98770.50;4133534;28;20060;-69
2022/07/21 04:06:33;;;;;;;20.75;8.38;;;;;;;19.72;93.09;98774.63;4135232;28;20210;-69
2022/07/21 04:08:33;;;;;;;12.63;7.35;;;;;;;19.69;92.52;98770.66;4134793;28;20043;-69
2022/07/21 04:10:35;;;;;;;16.00;9.55;;;;;;;19.67;92.48;98770.28;4134144;28;20050;-69
2022/07/21 04:12:36;;;;;;;10.63;7.05;;;;;;;19.66;93.28;98776.34;4134500;28;20116;-69
2022/07/21 04:14:37;;;;;;;14.07;7.93;;;;;;;19.69;92.55;98772.66;4133302;28;20445;-69
2022/07/21 04:16:37;;;;;;;8.63;6.90;;;;;;;19.72;92.35;98774.63;4132577;28;20498;-69
2022/07/21 04:18:37;;;;;;;10.48;6.65;;;;;;;19.71;92.59;98781.47;4134485;28;20061;-69
2022/07/21 04:20:38;;;;;;;12.48;6.75;;;;;;;19.70;92.75;98777.88;4133456;28;20050;-69
2022/07/21 04:22:38;;;;;;;13.40;7.93;;;;;;;19.70;92.96;98789.09;4134635;28;20089;-69
2022/07/21 04:24:38;;;;;;;14.13;8.25;;;;;;;19.70;94.59;98793.91;4135358;28;20510;-69
2022/07/21 04:26:39;;;;;;;11.13;7.28;;;;;;;19.63;94.72;98789.22;4135230;28;20108;-69
2022/07/21 04:28:39;;;;;;;10.07;7.50;;;;;;;19.66;93.53;98779.94;4135012;28;20050;-69
2022/07/21 04:30:40;;;;;;;9.93;7.45;;;;;;;19.76;92.59;98783.75;4134859;28;20042;-69
2022/07/21 04:32:40;;;;;;;12.13;7.65;;;;;;;19.81;92.37;98784.03;4134769;28;20855;-69
2022/07/21 04:34:41;;;;;;;16.23;7.95;;;;;;;19.89;89.89;98790.31;4134699;28;20049;-69
2022/07/21 04:36:41;;;;;;;15.02;7.95;;;;;;;19.92;90.02;98790.22;4136268;28;20471;-69
2022/07/21 04:38:42;;;;;;;10.77;7.22;;;;;;;20.04;88.64;98788.78;4135152;28;20046;-69
2022/07/21 04:40:42;;;;;;;14.60;7.95;;;;;;;20.04;89.65;98791.59;4133736;28;20437;-69
2022/07/21 04:42:43;;;;;;;10.00;6.93;;;;;;;20.05;87.92;98787.53;4135667;28;20056;-69
2022/07/21 04:44:43;;;;;;;11.85;7.22;;;;;;;20.10;87.85;98783.41;4135990;28;20078;-69
2022/07/21 04:46:44;;;;;;;10.68;6.80;;;;;;;20.12;88.53;98800.66;4133479;28;20050;-69
2022/07/21 04:48:44;;;;;;;9.65;7.10;;;;;;;20.14;87.60;98812.22;4136087;28;20128;-69
2022/07/21 04:50:45;;;;;;;11.88;6.32;;;;;;;20.20;85.55;98813.31;4136662;28;20050;-69
2022/07/21 04:52:46;;;;;;;10.95;7.07;;;;;;;20.25;85.12;98812.00;4137362;28;20148;-69
2022/07/21 04:54:46;;;;;;;10.35;6.68;;;;;;;20.35;84.92;98820.19;4138112;28;20056;-69
2022/07/21 04:56:46;;;;;;;7.40;6.32;;;;;;;20.47;82.35;98821.56;4137223;28;20049;-69
2022/07/21 04:58:47;;;;;;;6.85;6.07;;;;;;;20.47;83.21;98827.19;4078553;28;20042;-69
2022/07/21 05:00:47;;;;;;;6.82;6.15;;;;;;;20.49;83.04;98821.91;4138881;28;20041;-70
2022/07/21 05:02:48;;;;;;;7.57;6.35;;;;;;;20.48;83.52;98828.75;4137207;28;20124;-69
2022/07/21 05:04:48;;;;;;;9.90;6.82;;;;;;;20.45;83.80;98822.00;4136767;28;20051;-70
2022/07/21 05:06:49;;;;;;;9.38;6.85;;;;;;;20.49;83.35;98824.72;4138402;28;20054;-69
2022/07/21 05:08:50;;;;;;;9.13;6.65;;;;;;;20.53;83.39;98824.66;4138006;28;20077;-70
2022/07/21 05:10:50;;;;;;;8.43;7.45;;;;;;;20.61;82.20;98826.06;4137811;28;20077;-69
2022/07/21 05:12:50;;;;;;;7.43;6.70;;;;;;;20.80;78.37;98821.59;4137159;28;20050;-69
2022/07/21 05:14:52;;;;;;;7.82;7.03;;;;;;;20.96;79.61;98815.97;4138563;28;20042;-70
2022/07/21 05:16:52;;;;;;;10.45;7.13;;;;;;;21.08;79.80;98822.91;4137877;28;20040;-69
2022/07/21 05:18:52;;;;;;;7.93;6.75;;;;;;;21.09;80.72;98825.28;4137262;28;20077;-69
2022/07/21 05:20:52;;;;;;;9.27;7.18;;;;;;;21.11;80.96;98833.28;4138260;28;20050;-69
2022/07/21 05:22:53;;;;;;;8.52;7.72;;;;;;;21.19;81.11;98843.94;4137496;28;20056;-69
2022/07/21 05:24:53;;;;;;;8.82;7.07;;;;;;;21.24;79.05;98839.78;4137884;28;20184;-70
2022/07/21 05:26:53;;;;;;;7.78;6.97;;;;;;;21.33;77.84;98842.00;4138353;28;20081;-69
2022/07/21 05:28:54;;;;;;;8.40;7.47;;;;;;;21.35;78.53;98831.88;4135394;28;20546;-69
2022/07/21 05:30:54;;;;;;;9.65;7.47;;;;;;;21.42;77.36;98837.31;4137705;28;20038;-69
2022/07/21 05:32:54;;;;;;;9.60;8.60;;;;;;;21.50;76.41;98849.16;4138231;28;20069;-69
2022/07/21 05:34:55;;;;;;;9.27;8.23;;;;;;;21.47;77.81;98848.03;4138130;28;20288;-69
2022/07/21 05:36:55;;;;;;;9.57;7.78;;;;;;;21.44;76.86;98853.78;4137601;28;20100;-69
2022/07/21 05:38:55;;;;;;;12.73;8.77;;;;;;;21.43;78.25;98838.09;4137538;28;20046;-69
2022/07/21 05:40:56;;;;;;;9.75;8.15;;;;;;;21.44;76.48;98823.59;4138087;28;20042;-69
2022/07/21 05:42:56;;;;;;;11.32;8.43;;;;;;;21.43;78.23;98816.41;4137162;28;20500;-70
2022/07/21 05:44:58;;;;;;;10.50;8.23;;;;;;;21.43;77.88;98807.94;4138210;28;20470;-70
2022/07/21 05:46:58;;;;;;;12.10;8.55;;;;;;;21.43;76.90;98815.56;4137986;28;20053;-70
2022/07/21 05:48:58;;;;;;;10.20;8.38;;;;;;;21.41;77.60;98807.59;4137337;28;20246;-69
2022/07/21 05:50:59;;;;;;;9.70;8.63;;;;;;;21.44;75.70;98820.78;4137812;28;20057;-70
2022/07/21 05:52:59;;;;;;;12.20;9.18;;;;;;;21.44;77.52;98822.81;4137658;28;20053;-69
2022/07/21 05:55:00;;;;;;;10.70;9.40;;;;;;;21.34;78.14;98827.47;4137368;28;20140;-70
2022/07/21 05:57:02;;;;;;;11.25;9.55;;;;;;;21.26;77.25;98834.47;4137494;28;20041;-70
2022/07/21 05:59:02;;;;;;;10.82;9.15;;;;;;;21.22;78.13;98839.44;4137656;28;20045;-70
2022/07/21 06:01:09;;;;;;;10.82;9.30;;;;;;;21.21;75.93;98844.28;4137012;28;20050;-70
2022/07/21 06:03:10;;;;;;;10.48;9.20;;;;;;;21.28;75.84;98844.13;4136758;28;20234;-69
2022/07/21 06:05:10;;;;;;;10.93;8.75;;;;;;;21.36;75.86;98849.56;4138050;28;20140;-69
2022/07/21 06:07:11;;;;;;;10.90;8.93;;;;;;;21.40;75.76;98836.97;4136050;28;20477;-70
2022/07/21 06:09:11;;;;;;;12.10;9.65;;;;;;;21.43;77.67;98827.66;4137171;28;20042;-70
2022/07/21 06:11:14;;;;;;;9.95;8.63;;;;;;;21.47;75.06;98833.19;4137221;28;20057;-70
2022/07/21 06:13:14;;;;;;;10.73;9.00;;;;;;;21.54;74.87;98824.53;4137627;28;20414;-70
2022/07/21 06:15:15;;;;;;;14.00;9.63;;;;;;;21.62;75.81;98836.41;4137860;28;20049;-70
2022/07/21 06:17:15;;;;;;;12.35;9.90;;;;;;;21.63;75.95;98830.31;4137932;28;20042;-70
2022/07/21 06:19:16;;;;;;;11.48;9.30;;;;;;;21.72;75.53;98838.91;4136777;28;20042;-70
2022/07/21 06:21:17;;;;;;;11.75;9.05;;;;;;;21.77;74.18;98844.00;4137382;28;20045;-70
2022/07/21 06:23:18;;;;;;;11.55;8.93;;;;;;;21.84;74.06;98843.00;4136963;28;20052;-70
2022/07/21 06:25:20;;;;;;;12.63;8.77;;;;;;;21.94;73.16;98850.38;4137814;28;20495;-70
2022/07/21 06:27:20;;;;;;;;;;;;;;;21.98;75.71;98853.09;4138024;28;20041;-70
2022/07/21 06:29:22;;;;;;;10.85;8.43;;;;;;;21.99;73.37;98854.66;4135268;28;20352;-70
2022/07/21 06:31:22;;;;;;;10.38;9.32;;;;;;;22.01;75.44;98858.63;4137162;28;20042;-70
2022/07/21 06:33:23;;;;;;;11.82;9.32;;;;;;;21.99;74.93;98849.81;4137492;28;20410;-70
2022/07/21 06:35:23;;;;;;;11.63;8.75;;;;;;;22.00;76.49;98859.06;4137435;28;20045;-70
2022/07/21 06:37:24;;;;;;;13.77;9.25;;;;;;;22.01;75.25;98852.19;4137501;28;20088;-70
2022/07/21 06:39:24;;;;;;;10.02;8.70;;;;;;;22.08;73.89;98852.00;4136069;28;20052;-70
2022/07/21 06:41:25;;;;;;;11.68;8.48;;;;;;;22.22;75.97;98856.44;4136690;28;20398;-70
2022/07/21 06:43:25;;;;;;;11.18;9.00;;;;;;;22.37;75.44;98851.97;4135891;28;20037;-70
2022/07/21 06:45:26;;;;;;;10.68;8.52;;;;;;;22.46;76.04;98852.09;4136265;28;20050;-70
2022/07/21 06:47:26;;;;;;;9.57;8.20;;;;;;;22.55;73.09;98863.50;4136765;28;20053;-70
2022/07/21 06:49:26;;;;;;;10.82;7.90;;;;;;;22.69;71.05;98863.06;4135685;28;20629;-70
2022/07/21 06:51:27;;;;;;;9.15;7.80;;;;;;;22.85;70.68;98861.41;4136449;28;20042;-70
2022/07/21 06:53:27;;;;;;;10.88;8.35;;;;;;;23.04;72.63;98868.81;4136734;28;20112;-70
2022/07/21 06:55:28;;;;;;;12.65;8.70;;;;;;;23.07;71.10;98867.13;4135635;28;20038;-70
2022/07/21 06:57:28;;;;;;;9.18;8.27;;;;;;;23.02;71.84;98865.66;4137261;28;20038;-70
2022/07/21 06:59:28;;;;;;;11.13;8.05;;;;;;;22.98;71.56;98867.81;4135856;28;20077;-70
2022/07/21 07:01:29;;;;;;;9.55;7.72;;;;;;;22.91;71.20;98865.22;4137447;28;20056;-70
2022/07/21 07:03:29;;;;;;;9.90;8.20;;;;;;;22.98;70.85;98862.94;4136189;28;20058;-70
2022/07/21 07:05:30;;;;;;;11.80;8.18;;;;;;;23.00;69.53;98859.66;4136390;28;20057;-70
2022/07/21 07:07:31;;;;;;;9.15;7.80;;;;;;;23.15;68.96;98857.16;4135865;28;20251;-70
2022/07/21 07:09:31;;;;;;;8.93;8.02;;;;;;;23.27;66.75;98857.16;4135370;28;20077;-70
2022/07/21 07:11:34;;;;;;;11.73;9.18;;;;;;;23.44;65.65;98857.78;4137003;28;20037;-70
2022/07/21 07:13:34;;;;;;;9.30;8.38;;;;;;;23.62;65.51;98868.50;4135950;28;20429;-70
2022/07/21 07:15:35;;;;;;;12.55;8.15;;;;;;;23.74;64.88;98864.03;4135378;28;20112;-70
2022/07/21 07:17:35;;;;;;;9.88;8.13;;;;;;;23.86;62.98;98862.41;4135432;28;20299;-70
2022/07/21 07:19:35;;;;;;;9.82;8.65;;;;;;;23.98;63.32;98862.34;4135525;28;20057;-70
2022/07/21 07:21:36;;;;;;;11.25;8.93;;;;;;;24.15;63.58;98862.94;4137240;28;20034;-70
2022/07/21 07:23:36;;;;;;;11.25;9.23;;;;;;;24.24;63.64;98863.00;4136246;28;20137;-70
2022/07/21 07:25:37;;;;;;;11.00;9.43;;;;;;;24.20;64.59;98867.22;4136597;28;20046;-70
2022/07/21 07:27:38;;;;;;;11.13;9.43;;;;;;;24.06;64.65;98871.34;4136291;28;20058;-70
2022/07/21 07:29:38;;;;;;;9.75;8.75;;;;;;;24.01;65.39;98874.78;4134060;28;20050;-70
2022/07/21 07:31:39;;;;;;;9.70;8.68;;;;;;;23.99;62.19;98866.75;4135721;28;20049;-70
2022/07/21 07:33:39;;;;;;;10.95;9.73;;;;;;;23.99;64.94;98878.06;4136053;28;20049;-70
2022/07/21 07:35:40;;;;;;;10.57;9.48;;;;;;;23.99;63.42;98875.22;4135346;28;20042;-70
2022/07/21 07:37:42;;;;;;;10.80;9.70;;;;;;;24.05;64.30;98870.56;4134089;28;20140;-70
2022/07/21 07:39:42;;;;;;;14.23;10.23;;;;;;;24.13;64.87;98879.56;4136099;28;20041;-70
2022/07/21 07:41:43;;;;;;;11.55;9.40;;;;;;;24.08;64.18;98872.50;4130210;28;20038;-70
2022/07/21 07:43:43;;;;;;;11.50;10.07;;;;;;;24.14;64.20;98869.06;4134690;28;20470;-70
2022/07/21 07:45:44;;;;;;;11.73;10.48;;;;;;;24.12;63.95;98877.22;4135400;28;20744;-70
2022/07/21 07:47:44;;;;;;;13.23;11.30;;;;;;;24.09;64.16;98873.28;4135179;28;20061;-70
2022/07/21 07:49:45;;;;;;;12.02;10.80;;;;;;;24.13;64.35;98868.28;4134195;28;20045;-70
2022/07/21 07:51:45;;;;;;;13.25;11.18;;;;;;;24.08;63.39;98877.34;4134321;28;20095;-70
2022/07/21 07:53:45;;;;;;;12.52;11.10;;;;;;;24.19;62.88;98869.25;4136426;28;20301;-70
2022/07/21 07:55:46;;;;;;;14.18;11.57;;;;;;;24.33;62.04;98873.63;4136649;28;20046;-70
2022/07/21 07:57:46;;;;;;;12.13;10.82;;;;;;;24.45;62.23;98869.13;4135702;28;20520;-70
2022/07/21 07:59:47;;;;;;;13.70;10.90;;;;;;;24.44;60.61;98865.50;4134962;28;20057;-70
2022/07/21 08:01:47;;;;;;;12.38;10.95;;;;;;;24.48;60.44;98862.53;4135097;28;20042;-70
2022/07/21 08:03:48;;;;;;;13.50;10.50;;;;;;;24.44;59.91;98857.03;4135635;28;20444;-70
2022/07/21 08:05:49;;;;;;;12.63;10.57;;;;;;;24.45;59.98;98861.44;4136543;28;20065;-70
2022/07/21 08:07:49;;;;;;;11.57;10.25;;;;;;;24.46;59.85;98857.34;4135470;28;20050;-70
2022/07/21 08:09:49;;;;;;;12.85;11.27;;;;;;;24.48;59.42;98871.03;4134774;28;20049;-70
2022/07/21 08:11:50;;;;;;;12.38;10.38;;;;;;;24.54;59.34;98874.84;4136044;28;20795;-70
2022/07/21 08:13:51;;;;;;;11.30;10.10;;;;;;;24.59;59.39;98865.75;4135416;28;20074;-70
2022/07/21 08:15:52;;;;;;;11.65;10.45;;;;;;;24.68;58.89;98867.84;4135553;28;20436;-70
2022/07/21 08:17:52;;;;;;;12.27;10.32;;;;;;;24.79;58.24;98865.38;4135379;28;20065;-70
2022/07/21 08:19:53;;;;;;;12.40;10.20;;;;;;;24.87;57.86;98858.16;4134375;28;20040;-70
2022/07/21 08:21:53;;;;;;;12.15;10.50;;;;;;;24.96;58.20;98875.19;4136656;28;20132;-70
2022/07/21 08:23:53;;;;;;;11.05;9.77;;;;;;;25.03;57.41;98874.13;4135598;28;20053;-70
2022/07/21 08:25:54;;;;;;;11.38;10.02;;;;;;;25.05;57.55;98872.41;4135466;28;20065;-70
2022/07/21 08:27:54;;;;;;;10.77;9.50;;;;;;;25.10;56.57;98865.34;4139950;28;20128;-70
2022/07/21 08:29:55;;;;;;;11.15;10.02;;;;;;;25.16;56.77;98871.97;4138082;28;20489;-70
2022/07/21 08:31:55;;;;;;;10.15;9.15;;;;;;;25.23;56.65;98866.00;4139427;28;20050;-70
2022/07/21 08:33:55;;;;;;;11.10;10.02;;;;;;;25.29;56.15;98861.31;4137952;28;20483;-70
2022/07/21 08:35:56;;;;;;;12.20;8.90;;;;;;;25.41;55.76;98871.72;4137352;28;20054;-70
2022/07/21 08:38:00;;;;;;;10.27;8.52;;;;;;;25.55;55.42;98872.34;4139755;28;20657;-70
2022/07/21 08:40:02;;;;;;;12.65;9.27;;;;;;;25.69;55.24;98861.19;4137967;28;20085;-70
2022/07/21 08:42:07;;;;;;;10.60;9.50;;;;;;;25.71;55.23;98861.53;4138403;28;20045;-70
2022/07/21 08:44:10;;;;;;;9.15;8.25;;;;;;;25.73;53.75;98876.03;4138780;28;20034;-70
2022/07/21 08:46:11;;;;;;;10.52;7.78;;;;;;;25.69;53.25;98866.88;4139502;28;20151;-70
2022/07/21 08:48:14;;;;;;;8.65;7.85;;;;;;;25.61;54.14;98873.31;4137696;28;20033;-70
2022/07/21 08:50:15;;;;;;;9.70;8.70;;;;;;;25.68;54.52;98864.50;4137545;28;20030;-70
2022/07/21 08:52:16;;;;;;;9.32;7.65;;;;;;;25.70;52.20;98865.59;4138203;28;20342;-70
2022/07/21 08:54:17;;;;;;;7.88;7.03;;;;;;;25.72;51.32;98868.00;4139505;28;20383;-70
2022/07/21 08:56:18;;;;;;;8.50;7.57;;;;;;;25.79;51.37;98861.22;4137015;28;20030;-71
2022/07/21 08:58:18;;;;;;;8.15;7.35;;;;;;;25.85;51.43;98871.47;4137695;28;20317;-70
2022/07/21 09:00:19;;;;;;;8.88;7.97;;;;;;;25.95;50.96;98872.25;4138981;28;20469;-71
2022/07/21 09:02:34;;;;;;;8.88;7.53;;;;;;;26.13;50.04;98863.72;4137936;28;20030;-70
2022/07/21 09:04:35;;;;;;;8.85;7.63;;;;;;;26.23;49.84;98865.31;4138244;28;20042;-70
2022/07/21 09:06:49;;;;;;;10.50;7.75;;;;;;;26.42;48.50;98865.28;4138856;28;20398;-70
2022/07/21 09:08:56;;;;;;;9.07;7.40;;;;;;;26.40;48.70;98865.78;4137450;28;20048;-70
2022/07/21 09:11:10;;;;;;;8.85;7.10;;;;;;;26.55;49.32;98874.38;4138830;28;20104;-70
2022/07/21 09:13:11;;;;;;;9.50;7.80;;;;;;;26.74;48.73;98858.88;4138351;28;20061;-70
2022/07/21 09:15:18;;;;;;;8.02;7.25;;;;;;;26.90;48.34;98862.59;4138468;28;20442;-70
2022/07/21 09:17:19;;;;;;;8.75;7.82;;;;;;;27.05;48.20;98866.31;4138085;28;20793;-70
2022/07/21 09:19:28;;;;;;;9.10;8.13;;;;;;;26.88;48.24;98869.53;4137592;28;20115;-70
2022/07/21 09:21:29;;;;;;;8.60;7.72;;;;;;;26.66;48.94;98871.06;4137630;28;20042;-70
2022/07/21 09:23:29;;;;;;;9.38;7.93;;;;;;;26.39;48.97;98869.84;4138407;28;20233;-70
2022/07/21 09:25:46;;;;;;;9.57;8.65;;;;;;;25.99;50.45;98859.50;4137256;28;20054;-70
2022/07/21 09:27:46;;;;;;;9.88;8.20;;;;;;;25.77;51.27;98856.03;4137888;28;20045;-70